Time;durP1;ratioP1;P1;durP2;ratioP2;P2;SDS_P1;SDS_P2;PMS_P1;PMS_P2;Temp;Humidity;BMP_temperature;BMP_pressure;BME280_temperature;BME280_humidity;BME280_pressure;Samples;Min_cycle;Max_cycle;Signal;HPM_P1;HPM_P2
2023/01/13 00:01:26;;;;;;;5.55;0.90;;;;;;;8.97;91.46;100303.06;4865026;29;20158;-74
2023/01/13 00:03:55;;;;;;;6.90;1.25;;;;;;;8.95;91.63;100309.28;4869777;29;20052;-74
2023/01/13 00:06:24;;;;;;;12.85;1.50;;;;;;;8.95;91.09;100311.91;4872417;29;20056;-74
2023/01/13 00:08:53;;;;;;;7.55;1.92;;;;;;;8.91;90.81;100321.66;4864183;29;20053;-74
2023/01/13 00:11:21;;;;;;;10.90;1.77;;;;;;;8.88;90.76;100319.13;4869884;29;20100;-75
2023/01/13 00:13:48;;;;;;;15.88;1.88;;;;;;;8.83;90.69;100306.13;4867252;29;20050;-74
2023/01/13 00:16:17;;;;;;;10.77;2.00;;;;;;;8.80;90.85;100302.75;4869676;29;20549;-74
2023/01/13 00:18:45;;;;;;;12.73;1.98;;;;;;;8.80;90.40;100315.91;4871009;29;20598;-74
2023/01/13 00:21:19;;;;;;;10.18;2.10;;;;;;;8.75;90.43;100302.88;4871944;29;20056;-74
2023/01/13 00:23:47;;;;;;;15.50;2.42;;;;;;;8.70;90.42;100312.69;4868189;29;20105;-75
2023/01/13 00:26:23;;;;;;;15.32;1.83;;;;;;;8.64;90.47;100316.34;4863396;29;20134;-75
2023/01/13 00:28:57;;;;;;;9.88;1.70;;;;;;;8.64;90.17;100320.75;4872014;29;20057;-76
2023/01/13 00:31:24;;;;;;;11.07;2.10;;;;;;;8.65;90.27;100314.56;4871911;29;20717;-75
2023/01/13 00:33:55;;;;;;;15.07;2.13;;;;;;;8.69;89.87;100298.69;4871455;29;20050;-75
2023/01/13 00:36:22;;;;;;;10.55;2.15;;;;;;;8.69;89.58;100303.06;4864640;29;20593;-75
2023/01/13 00:38:49;;;;;;;12.77;2.30;;;;;;;8.65;89.75;100290.91;4871108;29;20045;-75
2023/01/13 00:41:21;;;;;;;13.02;2.55;;;;;;;8.60;89.75;100288.44;4873798;29;20057;-75
2023/01/13 00:43:49;;;;;;;12.93;2.05;;;;;;;8.57;89.51;100295.56;4871678;29;20053;-75
2023/01/13 00:46:20;;;;;;;13.07;2.33;;;;;;;8.49;89.51;100296.66;4870974;29;20075;-76
2023/01/13 00:48:48;;;;;;;11.35;2.03;;;;;;;8.46;89.58;100296.72;4870028;29;20045;-75
2023/01/13 00:51:20;;;;;;;13.55;2.03;;;;;;;8.40;89.83;100287.25;4871224;29;20899;-75
2023/01/13 00:53:50;;;;;;;18.45;2.53;;;;;;;8.37;90.10;100289.09;4873534;29;20049;-74
2023/01/13 00:56:21;;;;;;;15.02;2.50;;;;;;;8.32;90.15;100280.53;4874584;29;20045;-74
2023/01/13 00:59:08;;;;;;;11.70;1.90;;;;;;;8.28;89.86;100287.63;4870511;29;20053;-74
2023/01/13 01:01:35;;;;;;;14.65;2.35;;;;;;;8.27;88.76;100292.91;4874537;29;20053;-74
2023/01/13 01:04:03;;;;;;;15.63;2.30;;;;;;;8.21;89.17;100286.97;4868960;29;20109;-76
2023/01/13 01:06:30;;;;;;;13.07;2.53;;;;;;;8.18;89.41;100288.81;4872895;29;20706;-75
2023/01/13 01:08:57;;;;;;;14.48;1.92;;;;;;;8.16;88.83;100288.00;4863353;29;20056;-75
2023/01/13 01:11:28;;;;;;;14.07;2.25;;;;;;;8.14;88.92;100300.28;4856484;29;20182;-73
2023/01/13 01:14:00;;;;;;;20.35;2.78;;;;;;;8.12;88.92;100288.97;4871322;29;20128;-73
2023/01/13 01:16:29;;;;;;;15.77;2.58;;;;;;;8.05;88.97;100286.53;4870471;29;20706;-71
2023/01/13 01:18:57;;;;;;;14.15;2.42;;;;;;;8.04;88.84;100289.19;4871553;29;20048;-72
2023/01/13 01:21:27;;;;;;;21.48;2.42;;;;;;;8.02;89.00;100294.50;4874066;29;20041;-71
2023/01/13 01:23:56;;;;;;;17.63;2.30;;;;;;;8.02;88.96;100302.38;4873461;29;20041;-70
2023/01/13 01:26:26;;;;;;;20.48;2.58;;;;;;;8.04;89.19;100292.69;4874640;29;20055;-72
2023/01/13 01:28:54;;;;;;;18.40;2.42;;;;;;;8.09;89.37;100295.19;4871858;29;20075;-73
2023/01/13 01:31:31;;;;;;;21.60;3.05;;;;;;;8.17;89.02;100308.09;4861920;29;20041;-73
2023/01/13 01:33:59;;;;;;;16.45;2.70;;;;;;;8.22;88.99;100301.81;4869922;29;20050;-73
2023/01/13 01:36:28;;;;;;;22.65;2.95;;;;;;;8.26;88.90;100302.56;4873084;29;20068;-73
2023/01/13 01:38:58;;;;;;;18.58;3.47;;;;;;;8.29;88.60;100312.97;4867048;29;20128;-73
2023/01/13 01:41:30;;;;;;;15.82;2.83;;;;;;;8.26;88.36;100302.56;4873518;29;20057;-73
2023/01/13 01:44:27;;;;;;;17.88;2.95;;;;;;;8.26;88.30;100297.31;4867366;29;20038;-73
2023/01/13 01:46:55;;;;;;;18.25;2.47;;;;;;;8.23;88.70;100293.03;4859421;29;20060;-73
2023/01/13 01:49:29;;;;;;;19.48;3.10;;;;;;;8.20;88.84;100292.22;4869946;29;20045;-74
2023/01/13 01:52:05;;;;;;;14.80;2.13;;;;;;;8.16;88.16;100301.97;4867385;29;20542;-73
2023/01/13 01:54:46;;;;;;;21.45;2.50;;;;;;;8.13;88.13;100302.06;4872829;29;20049;-75
2023/01/13 01:57:22;;;;;;;15.23;2.20;;;;;;;8.09;88.65;100285.53;4873755;29;20133;-73
2023/01/13 01:59:50;;;;;;;21.15;2.63;;;;;;;8.07;88.33;100302.22;4867187;29;20605;-74
2023/01/13 02:02:17;;;;;;;16.38;2.70;;;;;;;8.04;88.44;100300.56;4864880;29;20049;-74
2023/01/13 02:04:52;;;;;;;16.77;2.47;;;;;;;8.01;88.54;100287.50;4871057;29;20056;-73
2023/01/13 02:07:27;;;;;;;18.85;2.90;;;;;;;7.98;88.53;100287.63;4862012;29;20646;-75
2023/01/13 02:09:59;;;;;;;18.38;3.00;;;;;;;7.97;88.70;100292.91;4860367;29;20261;-76
2023/01/13 02:12:28;;;;;;;15.55;2.25;;;;;;;7.97;88.65;100291.16;4859629;29;20511;-77
2023/01/13 02:15:04;;;;;;;14.07;2.50;;;;;;;7.97;88.57;100288.53;4862545;29;20474;-75
2023/01/13 02:18:07;;;;;;;14.38;3.03;;;;;;;7.99;87.90;100296.34;4858243;29;20942;-78
2023/01/13 02:20:58;;;;;;;15.00;2.38;;;;;;;7.95;88.27;100299.94;4868277;29;20118;-78
2023/01/13 02:27:25;;;;;;;25.25;3.00;;;;;;;7.87;87.81;100292.31;4872651;29;20060;-72
2023/01/13 02:33:49;;;;;;;21.85;3.10;;;;;;;7.81;87.25;100308.22;4862311;29;20557;-72
2023/01/13 02:36:32;;;;;;;23.60;3.22;;;;;;;7.74;86.93;100297.88;4861470;29;20045;-72
2023/01/13 02:39:11;;;;;;;19.08;3.25;;;;;;;7.71;87.13;100297.97;4870414;29;20544;-72
2023/01/13 02:44:48;;;;;;;21.63;3.80;;;;;;;7.66;86.26;100302.50;4861837;29;20046;-73
2023/01/13 02:47:24;;;;;;;20.17;3.00;;;;;;;7.66;85.90;100305.13;4869987;29;20060;-73
2023/01/13 02:50:09;;;;;;;22.05;2.75;;;;;;;7.64;85.81;100299.03;4859897;29;20050;-72
2023/01/13 02:52:45;;;;;;;20.92;3.60;;;;;;;7.60;85.71;100294.75;4871411;29;20041;-73
2023/01/13 02:55:20;;;;;;;19.40;3.40;;;;;;;7.57;86.15;100302.75;4874350;29;20101;-73
2023/01/13 02:57:51;;;;;;;22.10;3.83;;;;;;;7.52;86.33;100297.63;4869132;29;20042;-72
2023/01/13 03:00:19;;;;;;;24.33;3.92;;;;;;;7.53;86.21;100299.31;4862925;29;20495;-73
2023/01/13 03:02:48;;;;;;;27.10;3.65;;;;;;;7.55;86.43;100283.56;4871969;29;20054;-72
2023/01/13 03:05:17;;;;;;;28.83;3.92;;;;;;;7.57;86.33;100279.97;4872638;29;20046;-75
2023/01/13 03:08:16;;;;;;;22.60;3.55;;;;;;;7.61;86.54;100284.25;4871956;29;20497;-74
2023/01/13 03:11:01;;;;;;;23.05;4.35;;;;;;;7.64;86.81;100272.81;4872618;29;20054;-75
2023/01/13 03:14:06;;;;;;;21.25;3.45;;;;;;;7.65;87.17;100271.91;4868880;29;20042;-72
2023/01/13 03:16:52;;;;;;;24.27;3.33;;;;;;;7.70;86.95;100271.78;4863338;29;20058;-73
2023/01/13 03:19:28;;;;;;;24.70;3.60;;;;;;;7.73;87.09;100263.84;4870503;29;20053;-73
2023/01/13 03:22:08;;;;;;;20.45;3.45;;;;;;;7.74;86.96;100265.53;4870041;29;20058;-71
2023/01/13 03:24:45;;;;;;;23.67;3.40;;;;;;;7.73;86.87;100264.69;4865729;29;20049;-75
2023/01/13 03:27:35;;;;;;;23.75;3.20;;;;;;;7.74;87.10;100263.78;4867044;29;20128;-75
2023/01/13 03:30:08;;;;;;;21.90;2.97;;;;;;;7.75;87.05;100256.75;4865101;29;20081;-74
2023/01/13 03:32:45;;;;;;;23.15;3.15;;;;;;;7.78;87.48;100249.66;4864522;29;20042;-74
2023/01/13 03:35:29;;;;;;;20.20;3.20;;;;;;;7.80;87.37;100243.50;4865917;29;20573;-74
2023/01/13 03:38:12;;;;;;;22.00;3.28;;;;;;;7.82;87.73;100249.56;4871048;29;20048;-75
2023/01/13 03:40:50;;;;;;;25.88;3.80;;;;;;;7.83;87.06;100241.69;4865658;29;20610;-75
2023/01/13 03:46:37;;;;;;;13.80;2.40;;;;;;;7.84;87.34;100238.13;4866434;29;20056;-74
2023/01/13 03:49:11;;;;;;;21.73;2.70;;;;;;;7.83;87.57;100227.69;4868739;29;20050;-73
2023/01/13 03:51:46;;;;;;;20.80;2.60;;;;;;;7.85;87.54;100237.22;4861431;29;20838;-73
2023/01/13 03:54:18;;;;;;;17.88;2.50;;;;;;;7.86;87.14;100227.59;4867339;29;20057;-73
2023/01/13 03:57:03;;;;;;;19.73;3.00;;;;;;;7.87;86.74;100226.69;4867652;29;20582;-73
2023/01/13 03:59:40;;;;;;;22.35;3.33;;;;;;;7.86;87.12;100236.31;4866233;29;20161;-73
2023/01/13 04:02:26;;;;;;;30.92;3.35;;;;;;;7.85;86.81;100239.84;4872651;29;20046;-73
2023/01/13 04:05:00;;;;;;;15.90;3.28;;;;;;;7.88;86.61;100237.16;4870417;29;20463;-73
2023/01/13 04:07:56;;;;;;;19.73;2.85;;;;;;;7.85;86.22;100239.84;4862753;29;20574;-73
2023/01/13 04:10:33;;;;;;;17.73;2.53;;;;;;;7.88;85.87;100257.28;4870414;29;20041;-71
2023/01/13 04:13:07;;;;;;;18.42;2.70;;;;;;;7.89;85.50;100245.88;4872695;29;20046;-72
2023/01/13 04:15:41;;;;;;;13.98;2.17;;;;;;;7.91;85.02;100252.81;4857384;29;20136;-72
2023/01/13 04:18:26;;;;;;;18.35;2.67;;;;;;;7.91;84.93;100246.69;4859522;29;20038;-73
2023/01/13 04:20:59;;;;;;;12.98;2.50;;;;;;;7.97;83.28;100246.53;4865319;29;20488;-75
2023/01/13 04:23:27;;;;;;;14.50;1.75;;;;;;;8.02;82.07;100242.00;4862284;29;20050;-73
2023/01/13 04:25:55;;;;;;;15.77;2.25;;;;;;;8.04;82.04;100242.81;4866667;29;20057;-74
2023/01/13 04:28:23;;;;;;;9.32;1.58;;;;;;;8.08;82.00;100252.34;4871301;29;20057;-74
2023/01/13 04:30:50;;;;;;;7.70;1.17;;;;;;;8.14;80.58;100259.13;4870819;29;20053;-71
2023/01/13 04:33:19;;;;;;;12.45;1.30;;;;;;;8.16;79.99;100273.09;4871316;29;20128;-71
2023/01/13 04:35:47;;;;;;;9.05;1.38;;;;;;;8.19;79.84;100262.50;4864613;29;20049;-71
2023/01/13 04:38:17;;;;;;;7.68;1.20;;;;;;;8.17;80.09;100269.56;4863183;29;20052;-76
2023/01/13 04:40:44;;;;;;;7.10;1.50;;;;;;;8.16;80.12;100267.84;4866599;29;20049;-76
2023/01/13 04:43:12;;;;;;;13.15;1.48;;;;;;;8.15;80.09;100263.47;4868849;29;20045;-77
2023/01/13 04:45:39;;;;;;;7.55;1.10;;;;;;;8.14;80.13;100258.28;4869311;29;20061;-77
2023/01/13 04:48:06;;;;;;;9.55;1.40;;;;;;;8.13;80.39;100267.94;4867041;29;20249;-75
2023/01/13 04:50:33;;;;;;;9.73;1.55;;;;;;;8.09;80.55;100271.56;4869093;29;20390;-73
2023/01/13 04:53:00;;;;;;;9.75;1.20;;;;;;;8.04;80.86;100270.81;4871818;29;20164;-73
2023/01/13 04:55:28;;;;;;;8.30;1.40;;;;;;;7.99;81.39;100263.06;4871099;29;20051;-73
2023/01/13 04:57:54;;;;;;;12.45;1.38;;;;;;;7.98;81.62;100263.13;4871214;29;20049;-73
2023/01/13 05:00:22;;;;;;;7.43;1.30;;;;;;;7.96;81.82;100259.69;4872487;29;20046;-74
2023/01/13 05:02:50;;;;;;;15.77;2.50;;;;;;;7.96;82.21;100267.56;4874707;29;20041;-74
2023/01/13 05:05:18;;;;;;;5.38;1.30;;;;;;;7.93;82.42;100268.50;4874123;29;20050;-74
2023/01/13 05:07:45;;;;;;;9.18;1.95;;;;;;;7.90;83.02;100260.72;4874114;29;20118;-73
2023/01/13 05:10:12;;;;;;;10.18;1.80;;;;;;;7.89;83.40;100261.59;4875359;29;20037;-73
2023/01/13 05:18:12;;;;;;;10.80;1.67;;;;;;;7.81;83.73;100253.97;4870237;29;20161;-70
2023/01/13 05:20:39;;;;;;;15.40;2.10;;;;;;;7.75;83.83;100262.88;4872948;29;20045;-71
2023/01/13 05:25:52;;;;;;;12.57;2.05;;;;;;;7.63;84.44;100265.00;4865607;29;20050;-69
2023/01/13 05:28:20;;;;;;;10.35;1.73;;;;;;;7.58;84.55;100271.22;4867498;29;20131;-69
2023/01/13 05:30:51;;;;;;;11.60;1.73;;;;;;;7.52;84.71;100267.88;4874488;29;20056;-70
2023/01/13 05:33:21;;;;;;;10.32;2.53;;;;;;;7.47;85.01;100262.75;4868097;29;20064;-70
2023/01/13 05:35:48;;;;;;;9.80;1.70;;;;;;;7.43;85.19;100248.88;4862843;29;20046;-74
2023/01/13 05:38:16;;;;;;;10.38;1.92;;;;;;;7.39;85.13;100255.09;4861959;29;20049;-74
2023/01/13 05:43:31;;;;;;;14.75;2.20;;;;;;;7.37;85.80;100254.28;4866190;29;20053;-76
2023/01/13 05:46:06;;;;;;;14.00;2.55;;;;;;;7.44;86.28;100257.59;4863627;29;20160;-75
2023/01/13 05:48:38;;;;;;;12.32;2.72;;;;;;;7.59;86.64;100254.56;4862977;29;20078;-75
2023/01/13 05:51:09;;;;;;;17.90;2.25;;;;;;;7.73;86.64;100259.44;4856917;29;20046;-75
2023/01/13 05:53:36;;;;;;;11.32;2.00;;;;;;;7.84;86.71;100266.16;4857009;29;20086;-75
2023/01/13 05:56:06;;;;;;;14.02;2.45;;;;;;;8.00;86.37;100275.28;4869816;29;20056;-74
2023/01/13 05:58:34;;;;;;;12.05;1.77;;;;;;;8.05;85.41;100276.03;4874358;29;20167;-74
2023/01/13 06:01:06;;;;;;;13.80;2.30;;;;;;;8.10;85.84;100291.66;4871473;29;20138;-74
2023/01/13 06:03:34;;;;;;;15.05;2.90;;;;;;;8.23;85.69;100282.53;4859300;29;20503;-73
2023/01/13 06:06:02;;;;;;;11.82;2.05;;;;;;;8.33;84.93;100283.09;4860391;29;20050;-72
2023/01/13 06:08:31;;;;;;;10.40;1.90;;;;;;;8.36;84.15;100282.13;4872355;29;20053;-73
2023/01/13 06:10:58;;;;;;;10.65;2.00;;;;;;;8.37;83.37;100287.38;4886707;29;20057;-73
2023/01/13 06:13:26;;;;;;;11.27;2.13;;;;;;;8.37;82.66;100284.72;4868019;29;20050;-72
2023/01/13 06:15:57;;;;;;;10.80;1.77;;;;;;;8.36;82.40;100288.25;4864134;29;20057;-77
2023/01/13 06:18:26;;;;;;;9.88;1.73;;;;;;;8.40;82.03;100289.03;4867244;29;20050;-77
2023/01/13 06:20:53;;;;;;;11.15;1.83;;;;;;;8.44;81.76;100289.78;4860397;29;20527;-77
2023/01/13 06:23:20;;;;;;;9.00;1.88;;;;;;;8.43;81.74;100285.44;4864187;29;20100;-76
2023/01/13 06:26:28;;;;;;;9.23;1.70;;;;;;;8.38;81.49;100289.09;4869464;29;20033;-77
2023/01/13 06:28:55;;;;;;;18.50;2.45;;;;;;;8.28;81.37;100287.63;4871177;29;20582;-78
2023/01/13 06:31:24;;;;;;;13.02;1.90;;;;;;;8.21;81.25;100286.97;4863613;29;20045;-77
2023/01/13 06:34:15;;;;;;;10.23;2.10;;;;;;;8.12;81.25;100295.09;4864077;29;20046;-74
2023/01/13 06:36:51;;;;;;;11.93;1.90;;;;;;;7.99;80.84;100291.09;4881849;29;20058;-74
2023/01/13 06:39:26;;;;;;;16.33;2.15;;;;;;;7.82;81.29;100302.06;4862466;29;20053;-75
2023/01/13 06:44:39;;;;;;;10.20;1.85;;;;;;;7.50;82.03;100291.53;4860151;29;20069;-74
2023/01/13 06:47:07;;;;;;;13.93;1.90;;;;;;;7.43;82.21;100288.22;4863363;29;20042;-74
2023/01/13 06:49:34;;;;;;;12.88;1.83;;;;;;;7.36;82.44;100289.28;4861612;29;20103;-75
2023/01/13 06:52:01;;;;;;;9.45;1.40;;;;;;;7.32;82.59;100285.00;4862225;29;20094;-74
2023/01/13 06:54:28;;;;;;;10.45;1.77;;;;;;;7.27;82.84;100290.38;4857623;29;20046;-73
2023/01/13 06:56:55;;;;;;;13.52;1.77;;;;;;;7.28;82.71;100293.84;4860038;29;20053;-74
2023/01/13 06:59:24;;;;;;;9.55;1.75;;;;;;;7.22;82.95;100300.13;4862372;29;20050;-74
2023/01/13 07:01:51;;;;;;;16.90;2.30;;;;;;;7.19;82.94;100296.69;4863231;29;20474;-74
2023/01/13 07:04:18;;;;;;;12.80;2.03;;;;;;;7.14;83.19;100299.44;4867518;29;20045;-72
2023/01/13 07:06:45;;;;;;;12.00;2.03;;;;;;;7.09;83.49;100302.16;4863773;29;20045;-73
2023/01/13 07:09:12;;;;;;;13.55;2.17;;;;;;;7.07;83.54;100305.72;4859294;29;20052;-72
2023/01/13 07:11:40;;;;;;;17.42;2.20;;;;;;;7.04;83.60;100303.19;4868392;29;20038;-73
2023/01/13 07:16:53;;;;;;;11.85;2.00;;;;;;;6.99;83.86;100306.78;4866642;29;20600;-73
2023/01/13 07:19:22;;;;;;;14.48;1.92;;;;;;;6.98;83.57;100320.78;4862132;29;20099;-74
2023/01/13 07:21:51;;;;;;;16.23;2.08;;;;;;;7.01;83.46;100321.63;4867765;29;20105;-73
2023/01/13 07:24:19;;;;;;;14.70;2.55;;;;;;;7.02;83.52;100321.56;4861926;29;20048;-74
2023/01/13 07:26:46;;;;;;;13.13;2.25;;;;;;;7.07;83.44;100329.31;4864483;29;20565;-73
2023/01/13 07:29:13;;;;;;;12.38;2.40;;;;;;;7.17;83.29;100319.50;4864821;29;20054;-73
2023/01/13 07:31:40;;;;;;;11.57;2.22;;;;;;;7.26;83.12;100316.63;4860914;29;20037;-72
2023/01/13 07:34:07;;;;;;;15.40;2.20;;;;;;;7.34;82.57;100313.81;4862690;29;20057;-72
2023/01/13 07:36:35;;;;;;;16.70;2.58;;;;;;;7.36;82.30;100318.13;4863846;29;20085;-71
2023/01/13 07:39:02;;;;;;;13.57;2.03;;;;;;;7.43;81.61;100317.06;4857560;29;20053;-71
2023/01/13 07:44:15;;;;;;;16.13;1.95;;;;;;;7.44;81.00;100321.41;4870471;29;20037;-72
2023/01/13 07:46:43;;;;;;;14.02;2.22;;;;;;;7.38;81.11;100311.06;4862895;29;20045;-71
2023/01/13 07:49:10;;;;;;;12.25;2.30;;;;;;;7.39;80.75;100311.94;4860893;29;20049;-72
2023/01/13 07:51:38;;;;;;;11.90;2.08;;;;;;;7.33;80.81;100312.94;4862087;29;20053;-72
2023/01/13 07:54:06;;;;;;;12.02;2.10;;;;;;;7.30;80.86;100320.88;4863235;29;20507;-72
2023/01/13 07:56:33;;;;;;;17.42;2.45;;;;;;;7.26;81.03;100327.97;4855344;29;21681;-73
2023/01/13 07:59:01;;;;;;;12.20;2.35;;;;;;;7.21;81.30;100329.84;4866821;29;20438;-73
2023/01/13 08:01:30;;;;;;;18.98;2.67;;;;;;;7.20;81.32;100329.88;4865383;29;20045;-74
2023/01/13 08:03:58;;;;;;;14.30;2.60;;;;;;;7.21;80.75;100336.84;4861794;29;20049;-73
2023/01/13 08:06:26;;;;;;;10.85;2.28;;;;;;;7.20;80.89;100338.63;4853976;29;20130;-73
2023/01/13 08:08:53;;;;;;;15.35;2.53;;;;;;;7.20;80.93;100338.63;4861397;29;20054;-74
2023/01/13 08:11:20;;;;;;;17.63;2.35;;;;;;;7.21;80.91;100345.59;4853379;29;20562;-73
2023/01/13 08:13:53;;;;;;;13.43;2.42;;;;;;;7.24;80.49;100347.28;4859637;29;20046;-72
2023/01/13 08:16:20;;;;;;;15.77;3.00;;;;;;;7.25;80.51;100346.38;4852697;29;20050;-73
2023/01/13 08:18:48;;;;;;;12.02;2.08;;;;;;;7.28;79.53;100346.28;4868809;29;20052;-74
2023/01/13 08:21:15;;;;;;;15.30;2.30;;;;;;;7.31;79.92;100351.47;4859313;29;20054;-73
2023/01/13 08:23:44;;;;;;;14.93;2.55;;;;;;;7.32;80.32;100347.09;4868861;29;20038;-74
2023/01/13 08:26:16;;;;;;;12.48;1.90;;;;;;;7.33;80.12;100349.66;4854358;29;20056;-75
2023/01/13 08:28:45;;;;;;;15.95;2.75;;;;;;;7.39;79.75;100353.91;4860768;29;20053;-76
2023/01/13 08:31:14;;;;;;;13.60;3.33;;;;;;;7.39;79.44;100360.00;4866738;29;20050;-76
2023/01/13 08:33:43;;;;;;;17.73;2.50;;;;;;;7.43;79.75;100372.13;4868414;29;20511;-77
2023/01/13 08:36:11;;;;;;;15.45;2.83;;;;;;;7.48;79.69;100373.81;4873526;29;20050;-76
2023/01/13 08:38:41;;;;;;;10.88;1.88;;;;;;;7.53;79.53;100361.41;4867352;29;20888;-76
2023/01/13 08:41:11;;;;;;;13.40;2.38;;;;;;;7.57;79.76;100365.69;4868665;29;20446;-77
2023/01/13 08:43:38;;;;;;;12.68;2.22;;;;;;;7.60;79.55;100368.22;4862004;29;20054;-75
2023/01/13 08:46:05;;;;;;;15.05;2.40;;;;;;;7.61;79.52;100372.56;4868929;29;20073;-78
2023/01/13 08:48:33;;;;;;;15.93;2.50;;;;;;;7.60;79.96;100369.09;4869296;29;20053;-76
2023/01/13 08:51:04;;;;;;;17.70;2.72;;;;;;;7.65;79.47;100370.72;4866524;29;20046;-75
2023/01/13 08:53:31;;;;;;;15.27;2.65;;;;;;;7.68;79.41;100374.13;4875800;29;20046;-75
2023/01/13 08:55:58;;;;;;;19.08;2.90;;;;;;;7.70;79.86;100368.88;4861005;29;20510;-76
2023/01/13 08:58:25;;;;;;;20.58;4.93;;;;;;;7.71;79.91;100378.47;4870555;29;20045;-76
2023/01/13 09:00:52;;;;;;;17.75;3.50;;;;;;;7.74;79.85;100379.22;4875004;29;20054;-75
2023/01/13 09:03:20;;;;;;;17.58;3.38;;;;;;;7.75;79.60;100362.59;4870594;29;20114;-76
2023/01/13 09:05:47;;;;;;;25.85;6.18;;;;;;;7.81;79.18;100384.31;4867816;29;20118;-75
2023/01/13 09:08:14;;;;;;;23.25;6.22;;;;;;;7.82;79.19;100380.78;4870541;29;20455;-76
2023/01/13 09:10:41;;;;;;;16.95;3.20;;;;;;;7.83;79.51;100383.41;4866431;29;20726;-75
2023/01/13 09:13:12;;;;;;;17.75;2.70;;;;;;;7.89;79.29;100385.84;4856817;29;20113;-75
2023/01/13 09:15:45;;;;;;;19.17;3.08;;;;;;;7.98;79.11;100384.75;4870977;29;20069;-77
2023/01/13 09:18:13;;;;;;;17.25;2.40;;;;;;;8.05;78.60;100388.03;4862234;29;20050;-78
2023/01/13 09:20:40;;;;;;;22.48;5.43;;;;;;;8.05;79.05;100381.06;4866533;29;20045;-76
2023/01/13 09:23:07;;;;;;;17.30;2.88;;;;;;;8.07;79.08;100392.38;4869066;29;20042;-76
2023/01/13 09:25:37;;;;;;;17.13;2.53;;;;;;;8.12;78.94;100379.13;4857241;29;20050;-79
2023/01/13 09:28:06;;;;;;;28.73;9.75;;;;;;;8.20;78.27;100389.38;4856917;29;20614;-77
2023/01/13 09:30:36;;;;;;;17.58;3.42;;;;;;;8.28;78.15;100383.94;4865264;29;20059;-76
2023/01/13 09:35:49;;;;;;;27.70;7.35;;;;;;;8.52;78.05;100387.66;4857683;29;20063;-75
2023/01/13 09:38:16;;;;;;;16.63;3.45;;;;;;;8.69;76.32;100390.66;4866938;29;20050;-75
2023/01/13 09:40:48;;;;;;;19.13;6.22;;;;;;;8.78;77.05;100389.50;4869989;29;20046;-75
2023/01/13 09:46:46;;;;;;;24.00;4.47;;;;;;;8.93;75.97;100409.22;4872831;29;20804;-74
2023/01/13 09:49:34;;;;;;;18.77;3.47;;;;;;;8.90;75.26;100403.19;4859628;29;20054;-74
2023/01/13 09:52:13;;;;;;;22.55;2.80;;;;;;;8.85;76.07;100419.09;4863401;29;20053;-76
2023/01/13 09:54:48;;;;;;;15.27;2.58;;;;;;;8.84;75.05;100410.38;4870247;29;20945;-74
2023/01/13 09:57:18;;;;;;;;;;;;;;;8.79;75.83;100396.50;4875714;29;20903;-76
2023/01/13 09:59:46;;;;;;;16.92;3.05;;;;;;;8.79;75.44;100432.44;4873970;29;19980;-74
2023/01/13 10:02:25;;;;;;;17.13;4.13;;;;;;;8.80;75.52;100435.03;4874734;29;20049;-75
2023/01/13 10:05:27;;;;;;;28.45;6.95;;;;;;;8.77;75.53;100442.97;4863798;29;20054;-74
2023/01/13 10:08:17;;;;;;;29.35;11.10;;;;;;;8.80;75.43;100452.56;4859758;29;20936;-74
2023/01/13 10:10:48;;;;;;;24.45;7.13;;;;;;;8.83;76.02;100452.47;4874614;29;20052;-75
2023/01/13 10:13:27;;;;;;;20.17;4.70;;;;;;;8.85;76.11;100450.66;4874739;29;20072;-74
2023/01/13 10:16:25;;;;;;;19.02;2.78;;;;;;;8.87;74.91;100448.84;4875062;29;20152;-76
2023/01/13 10:19:14;;;;;;;14.60;3.20;;;;;;;8.88;75.18;100458.47;4874447;29;20049;-75
2023/01/13 10:22:41;;;;;;;20.38;3.53;;;;;;;9.06;74.70;100461.44;4855972;29;20049;-75
2023/01/13 10:25:35;;;;;;;12.95;2.55;;;;;;;9.17;74.23;100454.94;4872686;29;20062;-74
2023/01/13 10:28:17;;;;;;;15.87;3.03;;;;;;;9.21;74.50;100449.59;4875195;29;20058;-75
2023/01/13 10:30:46;;;;;;;20.05;3.67;;;;;;;9.17;74.99;100457.56;4874913;29;20120;-74
2023/01/13 10:33:21;;;;;;;13.88;3.50;;;;;;;9.12;75.71;100472.63;4874939;29;20050;-75
2023/01/13 10:35:53;;;;;;;16.88;4.20;;;;;;;9.06;76.10;100457.03;4874003;29;20054;-74
2023/01/13 10:38:28;;;;;;;18.90;3.60;;;;;;;9.01;76.78;100457.16;4873862;29;20820;-74
2023/01/13 10:41:18;;;;;;;23.92;3.13;;;;;;;8.92;77.02;100469.75;4874450;29;20482;-75
2023/01/13 10:44:00;;;;;;;26.80;4.22;;;;;;;8.73;77.80;100462.41;4874574;29;20048;-76
2023/01/13 10:46:30;;;;;;;18.15;3.78;;;;;;;8.65;78.08;100480.13;4874738;29;20065;-75
2023/01/13 10:49:24;;;;;;;19.63;3.22;;;;;;;8.59;79.04;100486.44;4870029;29;20093;-74
2023/01/13 10:51:51;;;;;;;18.52;3.80;;;;;;;8.53;79.59;100494.47;4869368;29;20046;-74
2023/01/13 10:54:22;;;;;;;18.08;3.20;;;;;;;8.46;80.14;100496.38;4874577;29;20053;-75
2023/01/13 10:57:23;;;;;;;19.45;3.30;;;;;;;8.36;81.28;100508.91;4873347;29;20052;-74
2023/01/13 10:59:51;;;;;;;15.95;3.05;;;;;;;8.21;81.83;100518.03;4867018;29;20050;-73
2023/01/13 11:02:29;;;;;;;19.48;3.42;;;;;;;8.13;82.41;100514.75;4863666;29;20046;-73
2023/01/13 11:04:56;;;;;;;17.67;3.20;;;;;;;8.06;83.61;100519.28;4855505;29;20046;-73
2023/01/13 11:07:59;;;;;;;17.95;3.95;;;;;;;8.01;84.43;100526.41;4855154;29;20093;-73
2023/01/13 11:10:31;;;;;;;19.52;3.83;;;;;;;8.00;84.49;100526.44;4839149;29;20064;-73
2023/01/13 11:13:08;;;;;;;22.40;4.03;;;;;;;7.96;84.44;100527.41;4851693;29;20060;-75
2023/01/13 11:16:11;;;;;;;29.33;5.50;;;;;;;7.96;84.99;100530.91;4865812;29;20145;-75
2023/01/13 11:19:01;;;;;;;21.50;3.42;;;;;;;7.97;84.87;100514.28;4855102;29;20050;-75
2023/01/13 11:21:40;;;;;;;19.33;3.63;;;;;;;8.05;84.38;100519.31;4854698;29;20538;-74
2023/01/13 11:24:35;;;;;;;20.50;3.45;;;;;;;8.13;84.47;100509.50;4854974;29;20588;-73
2023/01/13 11:27:13;;;;;;;16.08;4.00;;;;;;;8.20;84.15;100520.69;4855670;29;20110;-74
2023/01/13 11:30:14;;;;;;;21.10;3.65;;;;;;;8.21;84.12;100518.03;4871414;29;20055;-73
2023/01/13 11:33:03;;;;;;;16.83;3.75;;;;;;;8.18;84.08;100526.00;4861259;29;20050;-74
2023/01/13 11:35:53;;;;;;;16.10;3.10;;;;;;;8.17;84.08;100526.03;4859009;29;20053;-73
2023/01/13 11:38:46;;;;;;;17.63;3.28;;;;;;;8.21;84.18;100519.78;4863596;29;20048;-73
2023/01/13 11:41:31;;;;;;;20.83;4.05;;;;;;;8.21;84.24;100518.03;4867397;29;20050;-75
2023/01/13 11:44:14;;;;;;;12.35;2.67;;;;;;;8.22;84.10;100524.16;4873072;29;20049;-75
2023/01/13 11:46:42;;;;;;;19.35;3.30;;;;;;;8.26;84.30;100522.28;4866216;29;20042;-73
2023/01/13 11:49:25;;;;;;;19.42;3.90;;;;;;;8.37;84.20;100520.25;4872872;29;20052;-74
2023/01/13 11:52:05;;;;;;;17.08;2.85;;;;;;;8.47;83.69;100526.16;4854327;29;20062;-74
2023/01/13 11:55:14;;;;;;;16.67;2.88;;;;;;;8.55;83.70;100532.94;4871893;29;20041;-73
2023/01/13 11:58:17;;;;;;;19.30;3.33;;;;;;;8.73;82.20;100522.84;4855393;29;20140;-73
2023/01/13 12:01:18;;;;;;;17.17;2.92;;;;;;;8.85;82.19;100526.88;4865047;29;20897;-73
2023/01/13 12:04:19;;;;;;;15.30;3.22;;;;;;;8.97;81.71;100523.03;4872557;29;20565;-74
2023/01/13 12:07:11;;;;;;;19.52;3.85;;;;;;;9.04;81.24;100529.88;4869901;29;20136;-73
2023/01/13 12:09:59;;;;;;;19.65;3.80;;;;;;;9.08;80.08;100539.38;4855949;29;20054;-74
2023/01/13 12:13:00;;;;;;;16.75;3.20;;;;;;;9.05;80.34;100534.22;4872573;29;20049;-75
2023/01/13 12:15:35;;;;;;;18.98;3.17;;;;;;;8.97;79.99;100523.91;4876334;29;20161;-74
2023/01/13 12:18:10;;;;;;;;;;;;;;;9.00;80.36;100541.38;4861841;29;20098;-73
2023/01/13 12:20:46;;;;;;;;;;;;;;;8.97;80.96;100549.31;4858463;29;20452;-75
2023/01/13 12:23:45;;;;;;;15.52;2.85;;;;;;;8.87;80.44;100556.63;4872032;29;19928;-74
2023/01/13 12:26:15;;;;;;;17.40;2.83;;;;;;;8.74;81.16;100571.88;4875244;29;20106;-73
2023/01/13 12:29:03;;;;;;;24.05;3.65;;;;;;;8.66;81.39;100572.06;4876301;29;20069;-73
2023/01/13 12:31:38;;;;;;;13.02;2.30;;;;;;;8.51;82.47;100577.72;4874409;29;20093;-73
2023/01/13 12:34:11;;;;;;;14.60;2.40;;;;;;;8.29;83.42;100587.88;4875198;29;20041;-73
2023/01/13 12:37:00;;;;;;;15.70;2.70;;;;;;;8.10;84.10;100575.22;4859439;29;20038;-74
2023/01/13 12:40:00;;;;;;;16.20;2.58;;;;;;;7.96;84.92;100575.53;4858115;29;20775;-74